sensor_id;sensor_type;location;lat;lon;timestamp;P1;durP1;ratioP1;P2;durP2;ratioP2
9447;SDS011;4762;48.128;11.376;2022-10-31T00:00:25;2.10;;;0.97;;
9447;SDS011;4762;48.128;11.376;2022-10-31T00:02:27;5.30;;;1.17;;
9447;SDS011;4762;48.128;11.376;2022-10-31T00:04:29;4.90;;;1.40;;
9447;SDS011;4762;48.128;11.376;2022-10-31T00:06:32;2.20;;;1.10;;
9447;SDS011;4762;48.128;11.376;2022-10-31T00:08:34;2.40;;;1.00;;
9447;SDS011;4762;48.128;11.376;2022-10-31T00:10:38;2.50;;;1.37;;
9447;SDS011;4762;48.128;11.376;2022-10-31T00:12:39;1.77;;;0.73;;
9447;SDS011;4762;48.128;11.376;2022-10-31T00:14:42;3.97;;;1.27;;
9447;SDS011;4762;48.128;11.376;2022-10-31T00:16:44;2.50;;;1.10;;
9447;SDS011;4762;48.128;11.376;2022-10-31T00:18:48;3.47;;;1.40;;
9447;SDS011;4762;48.128;11.376;2022-10-31T00:20:57;4.60;;;1.57;;
9447;SDS011;4762;48.128;11.376;2022-10-31T00:23:02;4.13;;;1.13;;
9447;SDS011;4762;48.128;11.376;2022-10-31T00:25:04;4.43;;;1.33;;
9447;SDS011;4762;48.128;11.376;2022-10-31T00:27:08;2.20;;;1.10;;
9447;SDS011;4762;48.128;11.376;2022-10-31T00:29:34;1.90;;;1.00;;
9447;SDS011;4762;48.128;11.376;2022-10-31T00:46:42;3.30;;;1.27;;
9447;SDS011;4762;48.128;11.376;2022-10-31T00:48:44;2.40;;;1.10;;
9447;SDS011;4762;48.128;11.376;2022-10-31T00:50:47;3.83;;;1.53;;
9447;SDS011;4762;48.128;11.376;2022-10-31T00:52:49;3.30;;;1.70;;
9447;SDS011;4762;48.128;11.376;2022-10-31T00:54:51;2.43;;;1.27;;
9447;SDS011;4762;48.128;11.376;2022-10-31T00:56:54;2.80;;;1.90;;
9447;SDS011;4762;48.128;11.376;2022-10-31T00:59:07;2.97;;;1.60;;
9447;SDS011;4762;48.128;11.376;2022-10-31T01:06:15;3.27;;;1.80;;
9447;SDS011;4762;48.128;11.376;2022-10-31T01:08:18;3.37;;;1.60;;
9447;SDS011;4762;48.128;11.376;2022-10-31T01:10:20;2.27;;;1.10;;
9447;SDS011;4762;48.128;11.376;2022-10-31T01:12:23;5.03;;;1.40;;
9447;SDS011;4762;48.128;11.376;2022-10-31T01:14:36;2.63;;;1.33;;
9447;SDS011;4762;48.128;11.376;2022-10-31T01:16:44;2.53;;;1.20;;
9447;SDS011;4762;48.128;11.376;2022-10-31T01:19:01;5.03;;;1.47;;
9447;SDS011;4762;48.128;11.376;2022-10-31T01:26:09;2.10;;;1.27;;
9447;SDS011;4762;48.128;11.376;2022-10-31T01:28:12;2.63;;;1.50;;
9447;SDS011;4762;48.128;11.376;2022-10-31T01:30:14;5.10;;;1.53;;
9447;SDS011;4762;48.128;11.376;2022-10-31T01:32:17;2.40;;;1.33;;
9447;SDS011;4762;48.128;11.376;2022-10-31T01:34:19;2.87;;;1.40;;
9447;SDS011;4762;48.128;11.376;2022-10-31T01:36:23;2.80;;;1.87;;
9447;SDS011;4762;48.128;11.376;2022-10-31T01:38:26;3.23;;;1.60;;
9447;SDS011;4762;48.128;11.376;2022-10-31T01:40:29;3.17;;;1.30;;
9447;SDS011;4762;48.128;11.376;2022-10-31T01:42:31;5.17;;;1.87;;
9447;SDS011;4762;48.128;11.376;2022-10-31T01:44:50;3.17;;;1.63;;
9447;SDS011;4762;48.128;11.376;2022-10-31T01:47:00;1.97;;;1.17;;
9447;SDS011;4762;48.128;11.376;2022-10-31T01:49:02;2.10;;;1.20;;
9447;SDS011;4762;48.128;11.376;2022-10-31T01:51:06;2.10;;;1.10;;
9447;SDS011;4762;48.128;11.376;2022-10-31T01:53:08;5.00;;;1.37;;
9447;SDS011;4762;48.128;11.376;2022-10-31T01:55:13;2.30;;;1.20;;
9447;SDS011;4762;48.128;11.376;2022-10-31T01:57:14;2.67;;;1.60;;
9447;SDS011;4762;48.128;11.376;2022-10-31T01:59:18;7.97;;;1.77;;
9447;SDS011;4762;48.128;11.376;2022-10-31T02:01:20;3.00;;;1.50;;
9447;SDS011;4762;48.128;11.376;2022-10-31T02:03:23;2.53;;;1.20;;
9447;SDS011;4762;48.128;11.376;2022-10-31T02:05:26;3.20;;;1.27;;
9447;SDS011;4762;48.128;11.376;2022-10-31T02:09:53;2.93;;;1.50;;
9447;SDS011;4762;48.128;11.376;2022-10-31T02:14:20;3.50;;;1.10;;
9447;SDS011;4762;48.128;11.376;2022-10-31T02:16:41;2.83;;;1.33;;
9447;SDS011;4762;48.128;11.376;2022-10-31T02:18:43;2.77;;;1.20;;
9447;SDS011;4762;48.128;11.376;2022-10-31T02:20:56;3.20;;;1.43;;
9447;SDS011;4762;48.128;11.376;2022-10-31T02:23:18;2.43;;;1.17;;
9447;SDS011;4762;48.128;11.376;2022-10-31T02:25:20;2.83;;;1.27;;
9447;SDS011;4762;48.128;11.376;2022-10-31T02:27:34;2.90;;;1.20;;
9447;SDS011;4762;48.128;11.376;2022-10-31T02:30:15;2.60;;;1.27;;
9447;SDS011;4762;48.128;11.376;2022-10-31T02:40:04;1.90;;;0.90;;
9447;SDS011;4762;48.128;11.376;2022-10-31T02:42:16;7.10;;;1.10;;
9447;SDS011;4762;48.128;11.376;2022-10-31T02:44:30;2.20;;;1.20;;
9447;SDS011;4762;48.128;11.376;2022-10-31T02:46:54;2.67;;;1.20;;
9447;SDS011;4762;48.128;11.376;2022-10-31T02:51:16;2.00;;;0.87;;
9447;SDS011;4762;48.128;11.376;2022-10-31T03:08:50;2.63;;;1.07;;
9447;SDS011;4762;48.128;11.376;2022-10-31T03:10:58;1.50;;;0.60;;
9447;SDS011;4762;48.128;11.376;2022-10-31T03:18:00;2.43;;;1.33;;
9447;SDS011;4762;48.128;11.376;2022-10-31T03:22:49;2.17;;;0.80;;
9447;SDS011;4762;48.128;11.376;2022-10-31T03:24:53;1.73;;;0.80;;
9447;SDS011;4762;48.128;11.376;2022-10-31T03:26:56;1.60;;;0.80;;
9447;SDS011;4762;48.128;11.376;2022-10-31T03:29:02;2.77;;;1.17;;
9447;SDS011;4762;48.128;11.376;2022-10-31T03:31:03;2.13;;;0.90;;
9447;SDS011;4762;48.128;11.376;2022-10-31T03:33:07;1.83;;;0.93;;
9447;SDS011;4762;48.128;11.376;2022-10-31T03:35:08;2.03;;;1.00;;
9447;SDS011;4762;48.128;11.376;2022-10-31T03:37:12;2.07;;;0.80;;
9447;SDS011;4762;48.128;11.376;2022-10-31T03:39:22;2.03;;;1.23;;
9447;SDS011;4762;48.128;11.376;2022-10-31T03:52:14;2.30;;;0.77;;
9447;SDS011;4762;48.128;11.376;2022-10-31T03:54:20;1.97;;;0.90;;
9447;SDS011;4762;48.128;11.376;2022-10-31T03:56:27;2.10;;;0.80;;
9447;SDS011;4762;48.128;11.376;2022-10-31T03:58:45;1.90;;;0.73;;
9447;SDS011;4762;48.128;11.376;2022-10-31T04:00:48;1.90;;;0.93;;
9447;SDS011;4762;48.128;11.376;2022-10-31T04:02:53;1.70;;;0.80;;
9447;SDS011;4762;48.128;11.376;2022-10-31T04:05:12;2.33;;;1.03;;
9447;SDS011;4762;48.128;11.376;2022-10-31T04:07:15;1.70;;;0.73;;
9447;SDS011;4762;48.128;11.376;2022-10-31T04:09:17;1.80;;;1.00;;
9447;SDS011;4762;48.128;11.376;2022-10-31T04:11:21;3.77;;;0.90;;
9447;SDS011;4762;48.128;11.376;2022-10-31T04:28:31;3.53;;;1.27;;
9447;SDS011;4762;48.128;11.376;2022-10-31T04:30:33;2.30;;;1.30;;
9447;SDS011;4762;48.128;11.376;2022-10-31T04:32:37;2.00;;;1.03;;
9447;SDS011;4762;48.128;11.376;2022-10-31T04:34:41;1.70;;;0.90;;
9447;SDS011;4762;48.128;11.376;2022-10-31T04:36:43;2.20;;;1.13;;
9447;SDS011;4762;48.128;11.376;2022-10-31T04:41:05;2.70;;;1.67;;
9447;SDS011;4762;48.128;11.376;2022-10-31T04:43:08;1.90;;;1.00;;
9447;SDS011;4762;48.128;11.376;2022-10-31T04:45:12;1.63;;;0.70;;
9447;SDS011;4762;48.128;11.376;2022-10-31T04:47:17;2.93;;;1.47;;
9447;SDS011;4762;48.128;11.376;2022-10-31T04:49:21;1.63;;;0.77;;
9447;SDS011;4762;48.128;11.376;2022-10-31T04:51:33;2.13;;;0.97;;
9447;SDS011;4762;48.128;11.376;2022-10-31T04:53:45;5.67;;;1.93;;
9447;SDS011;4762;48.128;11.376;2022-10-31T04:56:04;2.70;;;1.00;;
9447;SDS011;4762;48.128;11.376;2022-10-31T05:00:46;2.30;;;0.83;;
9447;SDS011;4762;48.128;11.376;2022-10-31T05:02:54;3.07;;;1.17;;
9447;SDS011;4762;48.128;11.376;2022-10-31T05:04:56;1.70;;;0.80;;
9447;SDS011;4762;48.128;11.376;2022-10-31T05:06:59;2.63;;;1.33;;
9447;SDS011;4762;48.128;11.376;2022-10-31T05:09:01;1.80;;;0.93;;
9447;SDS011;4762;48.128;11.376;2022-10-31T05:11:04;1.50;;;0.60;;
9447;SDS011;4762;48.128;11.376;2022-10-31T05:13:08;2.13;;;1.00;;
9447;SDS011;4762;48.128;11.376;2022-10-31T05:15:11;2.20;;;1.10;;
9447;SDS011;4762;48.128;11.376;2022-10-31T05:17:42;1.57;;;0.70;;
9447;SDS011;4762;48.128;11.376;2022-10-31T05:19:50;2.47;;;1.37;;
9447;SDS011;4762;48.128;11.376;2022-10-31T05:21:52;1.97;;;1.07;;
9447;SDS011;4762;48.128;11.376;2022-10-31T05:24:00;1.87;;;1.10;;
9447;SDS011;4762;48.128;11.376;2022-10-31T05:26:04;2.20;;;1.00;;
9447;SDS011;4762;48.128;11.376;2022-10-31T05:28:06;1.90;;;1.03;;
9447;SDS011;4762;48.128;11.376;2022-10-31T05:30:09;2.57;;;0.87;;
9447;SDS011;4762;48.128;11.376;2022-10-31T05:32:12;1.70;;;0.90;;
9447;SDS011;4762;48.128;11.376;2022-10-31T05:34:15;2.13;;;1.13;;
9447;SDS011;4762;48.128;11.376;2022-10-31T05:36:17;1.70;;;0.87;;
9447;SDS011;4762;48.128;11.376;2022-10-31T05:38:20;1.70;;;0.80;;
9447;SDS011;4762;48.128;11.376;2022-10-31T05:40:22;2.70;;;1.27;;
9447;SDS011;4762;48.128;11.376;2022-10-31T05:42:24;1.90;;;0.90;;
9447;SDS011;4762;48.128;11.376;2022-10-31T05:44:27;2.30;;;0.83;;
9447;SDS011;4762;48.128;11.376;2022-10-31T05:46:29;2.77;;;1.33;;
9447;SDS011;4762;48.128;11.376;2022-10-31T05:48:33;1.60;;;0.60;;
9447;SDS011;4762;48.128;11.376;2022-10-31T05:50:35;2.77;;;1.43;;
9447;SDS011;4762;48.128;11.376;2022-10-31T05:52:37;2.07;;;0.87;;
9447;SDS011;4762;48.128;11.376;2022-10-31T05:54:42;1.50;;;0.60;;
9447;SDS011;4762;48.128;11.376;2022-10-31T05:56:44;1.70;;;0.93;;
9447;SDS011;4762;48.128;11.376;2022-10-31T06:01:19;3.30;;;1.23;;
9447;SDS011;4762;48.128;11.376;2022-10-31T06:03:22;2.43;;;1.10;;
9447;SDS011;4762;48.128;11.376;2022-10-31T06:05:29;2.40;;;1.10;;
9447;SDS011;4762;48.128;11.376;2022-10-31T06:10:11;2.47;;;1.10;;
9447;SDS011;4762;48.128;11.376;2022-10-31T06:12:15;2.50;;;1.17;;
9447;SDS011;4762;48.128;11.376;2022-10-31T06:14:17;3.00;;;1.43;;
9447;SDS011;4762;48.128;11.376;2022-10-31T06:16:19;3.20;;;1.33;;
9447;SDS011;4762;48.128;11.376;2022-10-31T06:18:22;2.03;;;1.10;;
9447;SDS011;4762;48.128;11.376;2022-10-31T06:20:27;4.33;;;1.40;;
9447;SDS011;4762;48.128;11.376;2022-10-31T06:22:33;1.80;;;1.00;;
9447;SDS011;4762;48.128;11.376;2022-10-31T06:24:41;1.80;;;0.80;;
9447;SDS011;4762;48.128;11.376;2022-10-31T06:26:44;1.73;;;0.93;;
9447;SDS011;4762;48.128;11.376;2022-10-31T06:28:46;2.03;;;1.03;;
9447;SDS011;4762;48.128;11.376;2022-10-31T06:30:50;1.80;;;0.97;;
9447;SDS011;4762;48.128;11.376;2022-10-31T06:33:01;2.80;;;1.20;;
9447;SDS011;4762;48.128;11.376;2022-10-31T06:35:10;1.90;;;0.90;;
9447;SDS011;4762;48.128;11.376;2022-10-31T06:37:12;2.43;;;0.90;;
9447;SDS011;4762;48.128;11.376;2022-10-31T06:39:18;2.47;;;1.30;;
9447;SDS011;4762;48.128;11.376;2022-10-31T06:41:24;2.40;;;1.30;;
9447;SDS011;4762;48.128;11.376;2022-10-31T06:43:27;1.50;;;0.60;;
9447;SDS011;4762;48.128;11.376;2022-10-31T06:45:36;3.00;;;0.97;;
9447;SDS011;4762;48.128;11.376;2022-10-31T06:47:40;1.40;;;0.63;;
9447;SDS011;4762;48.128;11.376;2022-10-31T06:52:21;3.33;;;1.20;;
9447;SDS011;4762;48.128;11.376;2022-10-31T06:54:51;2.20;;;0.90;;
9447;SDS011;4762;48.128;11.376;2022-10-31T06:56:55;2.30;;;1.03;;
9447;SDS011;4762;48.128;11.376;2022-10-31T06:59:01;1.57;;;0.70;;
9447;SDS011;4762;48.128;11.376;2022-10-31T07:01:07;1.80;;;0.80;;
9447;SDS011;4762;48.128;11.376;2022-10-31T07:03:11;2.80;;;0.93;;
9447;SDS011;4762;48.128;11.376;2022-10-31T07:15:20;1.70;;;0.90;;
9447;SDS011;4762;48.128;11.376;2022-10-31T07:32:18;1.50;;;0.70;;
9447;SDS011;4762;48.128;11.376;2022-10-31T07:36:29;2.60;;;1.10;;
9447;SDS011;4762;48.128;11.376;2022-10-31T07:38:32;2.10;;;0.90;;
9447;SDS011;4762;48.128;11.376;2022-10-31T07:40:34;1.83;;;0.70;;
9447;SDS011;4762;48.128;11.376;2022-10-31T07:42:38;2.10;;;1.03;;
9447;SDS011;4762;48.128;11.376;2022-10-31T07:44:40;2.10;;;1.10;;
9447;SDS011;4762;48.128;11.376;2022-10-31T07:54:14;1.60;;;0.90;;
9447;SDS011;4762;48.128;11.376;2022-10-31T07:56:19;1.80;;;0.90;;
9447;SDS011;4762;48.128;11.376;2022-10-31T07:58:21;2.20;;;1.00;;
9447;SDS011;4762;48.128;11.376;2022-10-31T08:00:25;2.70;;;1.53;;
9447;SDS011;4762;48.128;11.376;2022-10-31T08:02:28;2.00;;;1.33;;
9447;SDS011;4762;48.128;11.376;2022-10-31T08:04:38;2.40;;;1.17;;
9447;SDS011;4762;48.128;11.376;2022-10-31T08:09:23;3.27;;;1.30;;
9447;SDS011;4762;48.128;11.376;2022-10-31T08:11:29;2.63;;;0.80;;
9447;SDS011;4762;48.128;11.376;2022-10-31T08:13:32;1.80;;;0.83;;
9447;SDS011;4762;48.128;11.376;2022-10-31T08:15:34;2.10;;;1.03;;
9447;SDS011;4762;48.128;11.376;2022-10-31T08:17:38;3.73;;;1.40;;
9447;SDS011;4762;48.128;11.376;2022-10-31T08:19:42;2.53;;;1.23;;
9447;SDS011;4762;48.128;11.376;2022-10-31T08:21:49;2.37;;;1.10;;
9447;SDS011;4762;48.128;11.376;2022-10-31T08:52:30;3.20;;;2.00;;
9447;SDS011;4762;48.128;11.376;2022-10-31T08:54:32;4.77;;;2.60;;
9447;SDS011;4762;48.128;11.376;2022-10-31T08:56:35;3.33;;;2.03;;
9447;SDS011;4762;48.128;11.376;2022-10-31T08:58:39;3.57;;;1.80;;
9447;SDS011;4762;48.128;11.376;2022-10-31T09:00:41;3.93;;;1.83;;
9447;SDS011;4762;48.128;11.376;2022-10-31T09:02:44;3.53;;;2.10;;
9447;SDS011;4762;48.128;11.376;2022-10-31T09:04:47;6.63;;;2.70;;
9447;SDS011;4762;48.128;11.376;2022-10-31T09:06:49;4.40;;;2.10;;
9447;SDS011;4762;48.128;11.376;2022-10-31T09:08:57;3.73;;;2.10;;
9447;SDS011;4762;48.128;11.376;2022-10-31T09:11:04;4.70;;;2.20;;
9447;SDS011;4762;48.128;11.376;2022-10-31T09:13:11;3.20;;;1.63;;
9447;SDS011;4762;48.128;11.376;2022-10-31T09:15:12;3.13;;;2.10;;
9447;SDS011;4762;48.128;11.376;2022-10-31T09:17:14;3.87;;;2.00;;
9447;SDS011;4762;48.128;11.376;2022-10-31T09:19:17;3.20;;;1.70;;
9447;SDS011;4762;48.128;11.376;2022-10-31T09:21:21;3.20;;;2.27;;
9447;SDS011;4762;48.128;11.376;2022-10-31T09:23:27;3.50;;;1.90;;
9447;SDS011;4762;48.128;11.376;2022-10-31T09:25:29;2.93;;;1.47;;
9447;SDS011;4762;48.128;11.376;2022-10-31T09:27:32;4.50;;;2.23;;
9447;SDS011;4762;48.128;11.376;2022-10-31T09:50:48;2.50;;;1.30;;
9447;SDS011;4762;48.128;11.376;2022-10-31T09:52:18;2.97;;;1.50;;
9447;SDS011;4762;48.128;11.376;2022-10-31T09:54:22;3.70;;;1.67;;
9447;SDS011;4762;48.128;11.376;2022-10-31T09:56:30;2.60;;;1.40;;
9447;SDS011;4762;48.128;11.376;2022-10-31T09:58:34;3.27;;;1.70;;
9447;SDS011;4762;48.128;11.376;2022-10-31T10:00:36;3.70;;;1.70;;
9447;SDS011;4762;48.128;11.376;2022-10-31T10:02:41;3.93;;;1.97;;
9447;SDS011;4762;48.128;11.376;2022-10-31T10:05:08;3.17;;;1.60;;
9447;SDS011;4762;48.128;11.376;2022-10-31T10:08:23;2.67;;;1.30;;
9447;SDS011;4762;48.128;11.376;2022-10-31T10:23:16;2.83;;;1.43;;
9447;SDS011;4762;48.128;11.376;2022-10-31T10:25:02;2.90;;;1.67;;
9447;SDS011;4762;48.128;11.376;2022-10-31T10:27:22;2.30;;;1.00;;
9447;SDS011;4762;48.128;11.376;2022-10-31T10:29:29;4.07;;;1.53;;
9447;SDS011;4762;48.128;11.376;2022-10-31T10:31:37;2.73;;;1.20;;
9447;SDS011;4762;48.128;11.376;2022-10-31T10:33:39;3.20;;;1.40;;
9447;SDS011;4762;48.128;11.376;2022-10-31T10:35:51;4.90;;;1.20;;
9447;SDS011;4762;48.128;11.376;2022-10-31T10:37:57;3.13;;;0.90;;
9447;SDS011;4762;48.128;11.376;2022-10-31T10:40:12;2.13;;;0.90;;
9447;SDS011;4762;48.128;11.376;2022-10-31T10:42:14;3.47;;;1.40;;
9447;SDS011;4762;48.128;11.376;2022-10-31T10:44:23;2.40;;;0.80;;
9447;SDS011;4762;48.128;11.376;2022-10-31T10:51:02;3.93;;;1.73;;
9447;SDS011;4762;48.128;11.376;2022-10-31T10:53:21;2.87;;;1.10;;
9447;SDS011;4762;48.128;11.376;2022-10-31T10:55:28;4.90;;;1.80;;
9447;SDS011;4762;48.128;11.376;2022-10-31T10:57:41;2.40;;;1.03;;
9447;SDS011;4762;48.128;11.376;2022-10-31T10:59:45;7.73;;;1.80;;
9447;SDS011;4762;48.128;11.376;2022-10-31T11:04:47;3.13;;;1.43;;
9447;SDS011;4762;48.128;11.376;2022-10-31T11:06:32;3.27;;;1.47;;
9447;SDS011;4762;48.128;11.376;2022-10-31T11:08:36;2.47;;;1.17;;
9447;SDS011;4762;48.128;11.376;2022-10-31T11:10:39;3.33;;;1.27;;
9447;SDS011;4762;48.128;11.376;2022-10-31T11:12:45;2.67;;;1.53;;
9447;SDS011;4762;48.128;11.376;2022-10-31T11:14:51;2.17;;;0.90;;
9447;SDS011;4762;48.128;11.376;2022-10-31T11:16:55;2.87;;;1.23;;
9447;SDS011;4762;48.128;11.376;2022-10-31T11:21:17;2.77;;;1.37;;
9447;SDS011;4762;48.128;11.376;2022-10-31T11:25:23;5.83;;;1.70;;
9447;SDS011;4762;48.128;11.376;2022-10-31T11:27:26;2.27;;;0.80;;
9447;SDS011;4762;48.128;11.376;2022-10-31T11:29:30;3.40;;;1.10;;
9447;SDS011;4762;48.128;11.376;2022-10-31T11:34:35;3.90;;;1.17;;
9447;SDS011;4762;48.128;11.376;2022-10-31T11:36:38;3.00;;;1.40;;
9447;SDS011;4762;48.128;11.376;2022-10-31T11:56:01;2.37;;;0.90;;
9447;SDS011;4762;48.128;11.376;2022-10-31T12:00:28;6.00;;;1.63;;
9447;SDS011;4762;48.128;11.376;2022-10-31T12:02:30;4.27;;;1.70;;
9447;SDS011;4762;48.128;11.376;2022-10-31T12:04:37;2.20;;;0.80;;
9447;SDS011;4762;48.128;11.376;2022-10-31T12:06:40;2.97;;;1.33;;
9447;SDS011;4762;48.128;11.376;2022-10-31T12:26:06;2.47;;;1.00;;
9447;SDS011;4762;48.128;11.376;2022-10-31T12:28:25;3.27;;;1.30;;
9447;SDS011;4762;48.128;11.376;2022-10-31T12:30:39;2.90;;;1.30;;
9447;SDS011;4762;48.128;11.376;2022-10-31T12:32:53;4.73;;;1.40;;
9447;SDS011;4762;48.128;11.376;2022-10-31T12:37:34;3.80;;;1.40;;
9447;SDS011;4762;48.128;11.376;2022-10-31T12:40:11;2.80;;;1.73;;
9447;SDS011;4762;48.128;11.376;2022-10-31T12:42:35;3.20;;;1.20;;
9447;SDS011;4762;48.128;11.376;2022-10-31T12:44:43;2.40;;;1.03;;
9447;SDS011;4762;48.128;11.376;2022-10-31T12:51:54;2.47;;;0.80;;
9447;SDS011;4762;48.128;11.376;2022-10-31T12:54:08;2.50;;;0.80;;
9447;SDS011;4762;48.128;11.376;2022-10-31T13:01:20;4.63;;;1.03;;
9447;SDS011;4762;48.128;11.376;2022-10-31T13:15:55;2.97;;;1.27;;
9447;SDS011;4762;48.128;11.376;2022-10-31T13:18:22;2.87;;;1.13;;
9447;SDS011;4762;48.128;11.376;2022-10-31T13:20:23;2.63;;;1.00;;
9447;SDS011;4762;48.128;11.376;2022-10-31T13:22:24;3.60;;;1.13;;
9447;SDS011;4762;48.128;11.376;2022-10-31T13:24:30;4.53;;;1.07;;
9447;SDS011;4762;48.128;11.376;2022-10-31T13:26:36;3.53;;;1.53;;
9447;SDS011;4762;48.128;11.376;2022-10-31T13:28:44;3.50;;;1.17;;
9447;SDS011;4762;48.128;11.376;2022-10-31T13:30:46;2.57;;;1.13;;
9447;SDS011;4762;48.128;11.376;2022-10-31T13:32:55;3.07;;;1.10;;
9447;SDS011;4762;48.128;11.376;2022-10-31T13:35:05;2.33;;;0.83;;
9447;SDS011;4762;48.128;11.376;2022-10-31T13:37:16;3.67;;;1.30;;
9447;SDS011;4762;48.128;11.376;2022-10-31T13:39:24;4.30;;;1.60;;
9447;SDS011;4762;48.128;11.376;2022-10-31T13:41:32;2.80;;;1.00;;
9447;SDS011;4762;48.128;11.376;2022-10-31T13:43:48;2.77;;;0.93;;
9447;SDS011;4762;48.128;11.376;2022-10-31T13:45:59;2.60;;;1.33;;
9447;SDS011;4762;48.128;11.376;2022-10-31T13:50:31;3.00;;;1.10;;
9447;SDS011;4762;48.128;11.376;2022-10-31T13:52:33;2.73;;;1.40;;
9447;SDS011;4762;48.128;11.376;2022-10-31T13:54:37;2.83;;;1.50;;
9447;SDS011;4762;48.128;11.376;2022-10-31T13:56:39;2.50;;;1.10;;
9447;SDS011;4762;48.128;11.376;2022-10-31T13:58:54;3.27;;;1.83;;
9447;SDS011;4762;48.128;11.376;2022-10-31T14:01:03;3.10;;;1.23;;
9447;SDS011;4762;48.128;11.376;2022-10-31T14:03:22;3.40;;;1.50;;
9447;SDS011;4762;48.128;11.376;2022-10-31T14:05:25;4.60;;;1.10;;
9447;SDS011;4762;48.128;11.376;2022-10-31T14:07:29;2.63;;;1.07;;
9447;SDS011;4762;48.128;11.376;2022-10-31T14:09:36;3.50;;;1.10;;
9447;SDS011;4762;48.128;11.376;2022-10-31T14:11:41;10.60;;;1.13;;
9447;SDS011;4762;48.128;11.376;2022-10-31T14:18:25;3.83;;;1.53;;
9447;SDS011;4762;48.128;11.376;2022-10-31T14:20:32;4.80;;;1.20;;
9447;SDS011;4762;48.128;11.376;2022-10-31T14:22:39;2.53;;;0.90;;
9447;SDS011;4762;48.128;11.376;2022-10-31T14:24:43;2.80;;;1.30;;
9447;SDS011;4762;48.128;11.376;2022-10-31T14:28:59;7.20;;;1.23;;
9447;SDS011;4762;48.128;11.376;2022-10-31T14:31:02;4.47;;;1.23;;
9447;SDS011;4762;48.128;11.376;2022-10-31T14:33:12;3.23;;;1.10;;
9447;SDS011;4762;48.128;11.376;2022-10-31T14:40:00;2.30;;;1.00;;
9447;SDS011;4762;48.128;11.376;2022-10-31T14:42:06;2.70;;;0.90;;
9447;SDS011;4762;48.128;11.376;2022-10-31T14:47:00;5.20;;;1.93;;
9447;SDS011;4762;48.128;11.376;2022-10-31T14:49:25;2.30;;;1.00;;
9447;SDS011;4762;48.128;11.376;2022-10-31T14:51:38;2.77;;;1.10;;
9447;SDS011;4762;48.128;11.376;2022-10-31T14:53:44;2.30;;;0.97;;
9447;SDS011;4762;48.128;11.376;2022-10-31T14:58:09;2.70;;;1.50;;
9447;SDS011;4762;48.128;11.376;2022-10-31T15:05:12;2.93;;;1.27;;
9447;SDS011;4762;48.128;11.376;2022-10-31T15:07:29;5.13;;;1.73;;
9447;SDS011;4762;48.128;11.376;2022-10-31T15:09:36;2.43;;;1.23;;
9447;SDS011;4762;48.128;11.376;2022-10-31T15:11:41;4.67;;;1.60;;
9447;SDS011;4762;48.128;11.376;2022-10-31T15:16:33;2.33;;;1.10;;
9447;SDS011;4762;48.128;11.376;2022-10-31T15:31:29;3.07;;;1.30;;
9447;SDS011;4762;48.128;11.376;2022-10-31T15:35:42;2.27;;;1.10;;
9447;SDS011;4762;48.128;11.376;2022-10-31T15:45:25;3.37;;;1.20;;
9447;SDS011;4762;48.128;11.376;2022-10-31T15:47:29;2.73;;;1.57;;
9447;SDS011;4762;48.128;11.376;2022-10-31T15:49:48;2.57;;;1.17;;
9447;SDS011;4762;48.128;11.376;2022-10-31T15:51:50;3.33;;;1.20;;
9447;SDS011;4762;48.128;11.376;2022-10-31T15:53:53;2.50;;;1.00;;
9447;SDS011;4762;48.128;11.376;2022-10-31T15:55:58;2.27;;;0.97;;
9447;SDS011;4762;48.128;11.376;2022-10-31T15:58:02;3.70;;;1.43;;
9447;SDS011;4762;48.128;11.376;2022-10-31T16:00:03;2.03;;;0.83;;
9447;SDS011;4762;48.128;11.376;2022-10-31T16:02:09;3.30;;;1.47;;
9447;SDS011;4762;48.128;11.376;2022-10-31T16:06:27;3.13;;;1.63;;
9447;SDS011;4762;48.128;11.376;2022-10-31T16:08:33;7.97;;;1.10;;
9447;SDS011;4762;48.128;11.376;2022-10-31T16:10:34;2.30;;;0.90;;
9447;SDS011;4762;48.128;11.376;2022-10-31T16:12:37;2.27;;;0.97;;
9447;SDS011;4762;48.128;11.376;2022-10-31T16:14:40;3.00;;;1.57;;
9447;SDS011;4762;48.128;11.376;2022-10-31T16:16:44;2.30;;;1.13;;
9447;SDS011;4762;48.128;11.376;2022-10-31T16:18:46;3.40;;;1.20;;
9447;SDS011;4762;48.128;11.376;2022-10-31T16:20:49;3.20;;;1.60;;
9447;SDS011;4762;48.128;11.376;2022-10-31T16:25:50;3.00;;;1.20;;
9447;SDS011;4762;48.128;11.376;2022-10-31T16:27:52;2.50;;;1.10;;
9447;SDS011;4762;48.128;11.376;2022-10-31T16:29:56;2.00;;;0.90;;
9447;SDS011;4762;48.128;11.376;2022-10-31T16:31:59;2.73;;;1.13;;
9447;SDS011;4762;48.128;11.376;2022-10-31T16:34:20;2.93;;;1.50;;
9447;SDS011;4762;48.128;11.376;2022-10-31T16:36:34;2.37;;;1.20;;
9447;SDS011;4762;48.128;11.376;2022-10-31T16:38:38;4.23;;;1.53;;
9447;SDS011;4762;48.128;11.376;2022-10-31T16:46:02;2.33;;;1.27;;
9447;SDS011;4762;48.128;11.376;2022-10-31T16:48:32;2.80;;;1.20;;
9447;SDS011;4762;48.128;11.376;2022-10-31T16:50:54;3.23;;;1.50;;
9447;SDS011;4762;48.128;11.376;2022-10-31T16:55:19;2.83;;;2.00;;
9447;SDS011;4762;48.128;11.376;2022-10-31T17:00:03;2.23;;;1.17;;
9447;SDS011;4762;48.128;11.376;2022-10-31T17:02:10;2.97;;;1.43;;
9447;SDS011;4762;48.128;11.376;2022-10-31T17:04:14;3.33;;;1.73;;
9447;SDS011;4762;48.128;11.376;2022-10-31T19:07:07;3.70;;;2.67;;
9447;SDS011;4762;48.128;11.376;2022-10-31T19:09:19;7.37;;;3.00;;
9447;SDS011;4762;48.128;11.376;2022-10-31T19:11:22;5.03;;;3.37;;
9447;SDS011;4762;48.128;11.376;2022-10-31T19:13:27;4.30;;;2.63;;
9447;SDS011;4762;48.128;11.376;2022-10-31T19:15:31;4.97;;;2.83;;
9447;SDS011;4762;48.128;11.376;2022-10-31T19:38:38;4.90;;;3.10;;
9447;SDS011;4762;48.128;11.376;2022-10-31T19:40:44;4.10;;;2.03;;
9447;SDS011;4762;48.128;11.376;2022-10-31T20:42:33;2.87;;;1.43;;
9447;SDS011;4762;48.128;11.376;2022-10-31T20:44:35;3.03;;;1.50;;
9447;SDS011;4762;48.128;11.376;2022-10-31T20:49:10;2.40;;;1.40;;
9447;SDS011;4762;48.128;11.376;2022-10-31T20:51:16;4.73;;;1.50;;
9447;SDS011;4762;48.128;11.376;2022-10-31T20:53:17;3.90;;;2.10;;
9447;SDS011;4762;48.128;11.376;2022-10-31T20:55:24;5.03;;;2.10;;
9447;SDS011;4762;48.128;11.376;2022-10-31T20:57:28;3.50;;;1.80;;
9447;SDS011;4762;48.128;11.376;2022-10-31T20:59:31;6.63;;;2.53;;
9447;SDS011;4762;48.128;11.376;2022-10-31T21:01:33;6.10;;;2.60;;
9447;SDS011;4762;48.128;11.376;2022-10-31T21:03:36;4.40;;;1.83;;
9447;SDS011;4762;48.128;11.376;2022-10-31T21:05:41;4.13;;;2.00;;
9447;SDS011;4762;48.128;11.376;2022-10-31T21:07:43;3.00;;;1.80;;
9447;SDS011;4762;48.128;11.376;2022-10-31T21:09:46;3.70;;;1.93;;
9447;SDS011;4762;48.128;11.376;2022-10-31T21:11:48;5.50;;;2.20;;
9447;SDS011;4762;48.128;11.376;2022-10-31T21:13:52;4.03;;;1.80;;
9447;SDS011;4762;48.128;11.376;2022-10-31T21:15:57;5.93;;;2.60;;
9447;SDS011;4762;48.128;11.376;2022-10-31T21:17:59;5.47;;;1.67;;
9447;SDS011;4762;48.128;11.376;2022-10-31T21:20:06;3.00;;;1.73;;
9447;SDS011;4762;48.128;11.376;2022-10-31T21:22:09;3.60;;;2.10;;
9447;SDS011;4762;48.128;11.376;2022-10-31T21:24:15;4.57;;;1.93;;
